Terminal Aerodrome Forecast
Issued by NWS Billings, MT

Home | Current Version | Previous Version | Graphics & Text | Print | Product List | Glossary On
Versions: 1 2 3 4 5 6 7 8 9 10 11 12 13 14 15 16 17 18 19 20 21 22
000
FTUS45 KBYZ 232039 AAA
TAFMLS
TAF AMD
KMLS 232039Z 2321/2418 08008KT P6SM -RA SCT015 SCT025 OVC050
     FM240000 VRB06KT 6SM -RA SCT007 SCT015 OVC025
     FM240700 VRB05KT 6SM -RA SCT007 BKN012 OVC020
     FM241500 36007KT P6SM VCSH SCT007 OVC015=

USA.gov is the U.S. government's official web portal to all federal, state and local government web resources and services.